createdAt,value
2022-09-06T05:15:53.247Z,1.55
2022-09-06T05:20:55.609Z,1.52
2022-09-06T05:25:57.918Z,1.20
2022-09-06T05:31:12.245Z,1.58
2022-09-06T05:36:14.500Z,1.52
2022-09-06T05:41:16.825Z,1.17
2022-09-06T05:46:19.239Z,1.42
2022-09-06T05:51:21.694Z,1.20
2022-09-06T05:56:24.653Z,1.52
2022-09-06T06:01:29.839Z,1.50
2022-09-06T06:06:33.845Z,1.42
2022-09-06T06:11:36.850Z,1.20
2022-09-06T06:16:39.139Z,1.30
2022-09-06T06:21:41.521Z,1.25
2022-09-06T06:26:44.074Z,1.15
2022-09-06T06:31:46.396Z,1.52
2022-09-06T06:36:48.795Z,1.00
2022-09-06T06:41:51.090Z,1.42
2022-09-06T06:47:02.719Z,1.10
2022-09-06T06:52:05.076Z,1.40
2022-09-06T06:57:09.394Z,1.38
2022-09-06T07:02:12.658Z,1.30
2022-09-06T07:07:32.855Z,1.20
2022-09-06T07:12:36.855Z,1.80
2022-09-06T07:17:39.738Z,1.25
2022-09-06T07:22:42.530Z,1.30
2022-09-06T07:32:52.846Z,1.52
2022-09-06T07:38:00.320Z,1.30
2022-09-06T07:43:02.539Z,1.35
2022-09-06T07:48:04.816Z,1.17
2022-09-06T07:53:10.786Z,1.23
2022-09-06T08:03:19.327Z,1.30
2022-09-06T08:13:44.580Z,1.38
2022-09-06T08:18:57.816Z,1.20
2022-09-06T08:24:04.949Z,1.20
2022-09-06T08:29:08.901Z,1.50
2022-09-06T08:34:15.311Z,1.45
2022-09-06T08:39:17.808Z,1.38
2022-09-06T08:45:02.319Z,1.05
2022-09-06T08:50:05.417Z,1.40
2022-09-06T08:55:10.410Z,1.90
2022-09-06T09:00:14.997Z,1.30
2022-09-06T09:05:30.554Z,1.20
2022-09-06T09:10:45.579Z,1.48
2022-09-06T09:15:47.929Z,1.50
2022-09-06T09:20:50.418Z,1.10
2022-09-06T09:25:55.773Z,1.23
2022-09-06T09:30:58.375Z,1.10
2022-09-06T09:36:12.838Z,1.30
2022-09-06T09:41:31.336Z,1.13
2022-09-06T09:46:35.685Z,1.33
2022-09-06T09:51:57.852Z,1.55
2022-09-06T09:57:00.155Z,1.70
2022-09-06T10:26:38.585Z,1.65
2022-09-06T10:31:45.471Z,1.60
2022-09-06T10:37:03.078Z,1.70
2022-09-06T10:42:25.261Z,1.67
2022-09-06T10:47:35.363Z,1.75
2022-09-06T10:52:44.805Z,1.90
2022-09-06T11:09:18.014Z,1.95
2022-09-06T11:14:24.365Z,1.92
2022-09-06T11:19:39.576Z,2.13
2022-09-06T11:25:14.344Z,1.65
2022-09-06T11:30:18.273Z,1.92
2022-09-06T11:35:32.596Z,1.80
2022-09-06T17:25:06.964Z,2.10
2022-09-06T17:30:09.969Z,1.85
2022-09-06T17:35:12.748Z,2.00
2022-09-06T17:40:15.386Z,2.28
2022-09-06T17:45:18.409Z,2.10
2022-09-06T17:50:20.952Z,1.90
2022-09-06T17:55:23.315Z,1.70
2022-09-06T18:00:26.291Z,2.00
2022-09-06T18:05:28.728Z,2.10
2022-09-06T18:10:36.914Z,2.42
2022-09-06T18:15:40.534Z,2.17
2022-09-06T18:20:42.858Z,2.65
2022-09-06T18:25:56.243Z,2.10
2022-09-06T18:31:00.306Z,2.22
2022-09-06T18:36:04.811Z,2.40
2022-09-06T18:41:08.907Z,2.50
2022-09-06T18:46:13.427Z,2.40
2022-09-06T18:51:16.368Z,2.35
2022-09-06T18:56:20.403Z,2.40
2022-09-06T19:01:22.898Z,2.20
2022-09-06T19:06:26.860Z,2.28
2022-09-06T19:11:29.521Z,2.28
2022-09-06T19:16:32.375Z,2.00
2022-09-06T19:21:40.797Z,2.28
2022-09-06T19:26:46.520Z,2.30
2022-09-06T19:31:49.496Z,2.78
2022-09-06T19:36:55.248Z,2.40
2022-09-06T19:41:58.032Z,2.47
